createdAt,value
2023-08-22T00:01:13.250Z,2.60
2023-08-22T00:03:41.500Z,2.70
2023-08-22T00:06:10.298Z,2.85
2023-08-22T00:08:38.789Z,2.88
2023-08-22T00:11:07.017Z,2.88
2023-08-22T00:13:34.876Z,3.08
2023-08-22T00:16:03.325Z,2.88
2023-08-22T00:18:31.254Z,2.67
2023-08-22T00:20:59.416Z,2.70
2023-08-22T00:23:27.228Z,2.42
2023-08-22T00:25:57.431Z,2.80
2023-08-22T00:28:27.370Z,2.67
2023-08-22T00:30:55.712Z,2.77
2023-08-22T00:33:23.529Z,2.67
2023-08-22T00:35:51.669Z,2.88
2023-08-22T00:38:19.498Z,2.60
2023-08-22T00:40:47.565Z,2.60
2023-08-22T00:43:17.716Z,2.50
2023-08-22T00:45:45.956Z,2.73
2023-08-22T00:48:15.699Z,2.78
2023-08-22T00:50:43.897Z,2.88
2023-08-22T00:53:12.254Z,3.00
2023-08-22T00:55:40.538Z,3.10
2023-08-22T00:58:08.371Z,2.80
2023-08-22T01:00:38.820Z,2.72
2023-08-22T01:03:06.825Z,3.00
2023-08-22T01:05:40.683Z,2.70
2023-08-22T01:08:31.459Z,2.80
2023-08-22T01:11:17.934Z,2.95
2023-08-22T01:13:50.253Z,2.67
2023-08-22T01:16:19.054Z,2.40
2023-08-22T01:18:48.282Z,2.78
2023-08-22T01:21:21.388Z,2.88
2023-08-22T01:23:49.242Z,2.80
2023-08-22T01:26:18.490Z,2.92
2023-08-22T01:28:48.440Z,2.78
2023-08-22T01:31:32.732Z,3.47
2023-08-22T01:34:25.916Z,3.08
2023-08-22T01:36:56.089Z,2.90
2023-08-22T01:39:29.229Z,3.05
2023-08-22T01:41:59.183Z,3.47
2023-08-22T01:44:29.325Z,2.90
2023-08-22T01:46:57.423Z,3.22
2023-08-22T01:49:25.410Z,3.60
2023-08-22T01:51:53.543Z,3.53
2023-08-22T01:54:22.269Z,3.35
2023-08-22T01:56:51.179Z,3.55
2023-08-22T01:59:19.105Z,3.88
2023-08-22T02:01:47.282Z,3.35
2023-08-22T02:04:15.199Z,3.70
2023-08-22T02:06:43.222Z,3.85
2023-08-22T02:09:11.152Z,3.88
2023-08-22T02:11:39.288Z,3.65
2023-08-22T02:14:07.457Z,3.72
2023-08-22T02:16:35.655Z,4.03
2023-08-22T02:19:03.452Z,4.38
2023-08-22T02:21:31.604Z,3.78
2023-08-22T02:23:59.641Z,3.97
2023-08-22T02:26:27.809Z,4.35
2023-08-22T02:28:55.599Z,4.03
2023-08-22T02:31:23.784Z,4.22
2023-08-22T02:33:52.005Z,3.75
2023-08-22T02:36:20.352Z,4.15
2023-08-22T02:38:48.135Z,4.20
2023-08-22T02:41:16.207Z,4.38
2023-08-22T02:43:44.024Z,4.30
2023-08-22T02:46:12.269Z,4.22
2023-08-22T02:48:40.521Z,4.43
2023-08-22T02:51:10.030Z,4.40
2023-08-22T02:53:37.837Z,4.20
2023-08-22T02:56:06.174Z,4.30
2023-08-22T02:58:35.585Z,4.03
2023-08-22T03:01:05.763Z,4.40
2023-08-22T03:03:33.830Z,4.88
2023-08-22T03:06:02.051Z,4.45
2023-08-22T03:08:30.401Z,4.75
2023-08-22T03:11:02.564Z,4.57
2023-08-22T03:13:31.349Z,4.93
2023-08-22T03:15:59.590Z,4.95
2023-08-22T03:18:30.613Z,4.97
2023-08-22T03:20:58.840Z,5.13
2023-08-22T03:23:29.563Z,4.88
2023-08-22T03:25:59.432Z,5.38
2023-08-22T03:28:28.233Z,5.47
2023-08-22T03:31:03.899Z,5.38
2023-08-22T03:33:34.644Z,5.45
2023-08-22T03:36:06.448Z,5.28
2023-08-22T03:38:34.410Z,5.50
2023-08-22T03:41:02.688Z,5.75
2023-08-22T03:43:31.195Z,6.05
2023-08-22T03:45:59.304Z,6.30
2023-08-22T03:48:27.272Z,6.38
2023-08-22T03:50:57.812Z,5.78
2023-08-22T03:53:25.803Z,5.83
2023-08-22T03:55:53.998Z,5.70
2023-08-22T03:58:21.790Z,5.68
2023-08-22T04:00:50.061Z,6.30
2023-08-22T04:03:17.954Z,5.68
2023-08-22T04:05:46.092Z,5.57
2023-08-22T04:08:14.108Z,6.28
2023-08-22T04:10:43.440Z,5.85
2023-08-22T04:13:11.395Z,5.53
2023-08-22T04:15:40.884Z,5.55
2023-08-22T04:18:09.214Z,5.55
2023-08-22T04:20:38.201Z,4.90
2023-08-22T04:23:08.403Z,5.70
2023-08-22T04:25:36.853Z,5.80
2023-08-22T04:28:06.156Z,4.60
2023-08-22T04:30:35.094Z,5.57
2023-08-22T04:33:04.490Z,5.28
2023-08-22T04:35:32.770Z,5.65
2023-08-22T04:38:00.801Z,5.38
2023-08-22T04:40:29.183Z,5.65
2023-08-22T04:43:12.007Z,4.97
2023-08-22T04:45:40.555Z,5.13
2023-08-22T04:48:09.408Z,5.45
2023-08-22T04:50:37.678Z,4.88
2023-08-22T04:53:06.024Z,4.40
2023-08-22T04:55:34.266Z,4.88
2023-08-22T04:58:02.172Z,5.18
2023-08-22T05:00:30.315Z,5.03
2023-08-22T05:02:58.228Z,5.05
2023-08-22T05:05:26.448Z,4.50
2023-08-22T05:07:54.511Z,4.40
2023-08-22T05:10:23.909Z,4.53
2023-08-22T05:12:52.770Z,4.35
2023-08-22T05:15:22.519Z,4.60
2023-08-22T05:17:51.190Z,4.50
2023-08-22T05:20:19.590Z,4.43
2023-08-22T05:22:47.448Z,4.20
2023-08-22T05:25:16.012Z,4.35
2023-08-22T05:27:44.232Z,4.13
2023-08-22T05:30:12.830Z,4.18
2023-08-22T05:32:41.492Z,4.35
2023-08-22T05:35:10.184Z,4.07
2023-08-22T05:37:39.724Z,4.10
2023-08-22T05:40:10.430Z,3.97
2023-08-22T05:42:38.851Z,4.20
2023-08-22T05:45:08.556Z,3.90
2023-08-22T05:47:38.774Z,3.90
2023-08-22T05:50:08.311Z,4.25
2023-08-22T05:52:36.165Z,4.30
2023-08-22T05:55:04.917Z,3.80
2023-08-22T05:57:34.449Z,3.92
2023-08-22T06:00:04.525Z,4.05
2023-08-22T06:02:45.185Z,3.90
2023-08-22T06:05:15.587Z,4.03
2023-08-22T06:07:44.137Z,4.40
2023-08-22T06:10:12.424Z,3.92
2023-08-22T06:12:40.988Z,4.03
2023-08-22T06:15:09.732Z,4.03
2023-08-22T06:17:38.725Z,4.05
2023-08-22T06:20:08.151Z,4.10
2023-08-22T06:22:36.398Z,3.90
2023-08-22T06:25:06.141Z,3.88
2023-08-22T06:27:35.305Z,4.35
2023-08-22T06:30:04.381Z,3.60
2023-08-22T06:32:35.817Z,3.58
2023-08-22T06:35:05.247Z,3.53
2023-08-22T06:37:33.386Z,2.78
2023-08-22T06:40:01.487Z,3.35
2023-08-22T06:42:29.505Z,3.17
2023-08-22T06:45:06.341Z,3.15
2023-08-22T06:47:36.356Z,2.80
2023-08-22T06:50:04.705Z,2.60
2023-08-22T06:52:33.066Z,2.90
2023-08-22T06:55:02.041Z,3.10
2023-08-22T06:57:29.878Z,3.13
2023-08-22T06:59:57.932Z,3.10
2023-08-22T07:02:26.329Z,2.75
2023-08-22T07:04:54.495Z,3.60
2023-08-22T07:07:22.489Z,2.83
2023-08-22T07:09:51.746Z,3.00
2023-08-22T07:12:19.883Z,3.25
2023-08-22T07:14:47.995Z,3.10
2023-08-22T07:17:15.930Z,3.53
2023-08-22T07:19:44.035Z,2.80
2023-08-22T07:22:11.939Z,3.00
2023-08-22T07:24:40.148Z,2.95
2023-08-22T07:27:11.297Z,3.10
2023-08-22T07:29:39.508Z,3.10
2023-08-22T07:32:09.649Z,2.92
2023-08-22T07:34:37.868Z,2.80
2023-08-22T07:37:05.783Z,3.17
2023-08-22T07:39:33.937Z,2.97
2023-08-22T07:42:05.849Z,3.00
2023-08-22T07:44:34.244Z,2.78
2023-08-22T07:47:03.408Z,2.60
2023-08-22T07:49:31.610Z,2.75
2023-08-22T07:51:59.767Z,2.95
2023-08-22T07:54:29.463Z,2.75
2023-08-22T07:57:08.412Z,3.47
2023-08-22T07:59:44.963Z,2.85
2023-08-22T08:02:12.803Z,2.92
2023-08-22T08:04:43.174Z,2.50
2023-08-22T08:07:11.222Z,2.88
2023-08-22T08:09:39.533Z,3.67
2023-08-22T08:12:07.932Z,3.30
2023-08-22T08:14:36.743Z,3.00
2023-08-22T08:17:04.785Z,2.80
2023-08-22T08:19:32.912Z,2.90
2023-08-22T08:22:00.798Z,2.92
2023-08-22T08:24:28.938Z,2.58
2023-08-22T08:26:57.460Z,3.35
2023-08-22T08:29:27.897Z,3.05
2023-08-22T08:31:58.178Z,2.55
2023-08-22T08:34:27.086Z,2.83
2023-08-22T08:36:55.061Z,3.13
2023-08-22T08:39:23.147Z,3.05
2023-08-22T08:42:03.536Z,3.17
2023-08-22T08:44:35.761Z,3.80
2023-08-22T08:47:04.868Z,3.67
2023-08-22T08:49:36.587Z,3.20
2023-08-22T08:52:08.307Z,3.10
2023-08-22T08:54:37.257Z,3.65
2023-08-22T08:57:05.602Z,3.00
2023-08-22T08:59:33.947Z,2.67
2023-08-22T09:02:04.558Z,3.28
2023-08-22T09:04:32.868Z,3.50
2023-08-22T09:07:01.174Z,3.30
2023-08-22T09:09:35.575Z,2.90
2023-08-22T09:12:08.963Z,2.67
2023-08-22T09:14:50.124Z,2.28
2023-08-22T09:17:18.783Z,2.20
2023-08-22T09:19:47.153Z,2.50
2023-08-22T09:22:16.513Z,2.40
2023-08-22T09:24:53.310Z,2.00
2023-08-22T09:27:28.518Z,2.17
2023-08-22T09:30:05.895Z,2.53
2023-08-22T09:32:35.125Z,2.17
2023-08-22T09:35:04.100Z,2.00
2023-08-22T09:37:38.476Z,2.50
2023-08-22T09:40:11.142Z,2.10
2023-08-22T09:42:43.540Z,2.17
2023-08-22T09:45:12.275Z,2.28
2023-08-22T09:50:16.788Z,2.10
2023-08-22T09:55:14.206Z,2.35
2023-08-22T09:57:45.478Z,2.22
2023-08-22T10:00:14.481Z,2.30
2023-08-22T10:02:43.769Z,2.25
2023-08-22T10:05:15.299Z,2.17
2023-08-22T10:07:45.708Z,2.42
2023-08-22T10:10:14.820Z,2.20
2023-08-22T10:12:46.688Z,2.00
2023-08-22T10:15:17.130Z,2.10
2023-08-22T10:17:45.831Z,2.30
2023-08-22T10:20:17.096Z,2.08
2023-08-22T10:22:45.510Z,2.10
2023-08-22T10:25:16.272Z,1.85
2023-08-22T10:27:50.129Z,1.92
2023-08-22T10:30:20.635Z,2.10
2023-08-22T10:33:20.556Z,2.40
2023-08-22T10:36:11.916Z,1.95
2023-08-22T10:39:01.628Z,2.15
2023-08-22T10:41:55.739Z,1.90
2023-08-22T10:44:28.323Z,1.90
2023-08-22T10:47:05.504Z,2.20
2023-08-22T10:49:40.240Z,1.90
2023-08-22T10:52:14.440Z,1.98
2023-08-22T10:55:04.334Z,2.00
2023-08-22T10:57:38.225Z,2.25
2023-08-22T11:00:25.133Z,2.00
2023-08-22T11:03:00.942Z,2.20
2023-08-22T11:05:29.062Z,2.17
2023-08-22T11:07:57.500Z,1.80
2023-08-22T11:10:26.739Z,2.30
2023-08-22T11:12:56.275Z,2.30
2023-08-22T11:15:24.451Z,1.92
2023-08-22T11:17:52.888Z,1.88
2023-08-22T11:20:22.718Z,1.90
2023-08-22T11:22:53.566Z,1.90
2023-08-22T11:25:25.956Z,1.83
2023-08-22T11:27:54.895Z,1.70
2023-08-22T11:30:24.070Z,1.70
2023-08-22T11:32:52.448Z,1.80
2023-08-22T11:35:20.532Z,1.70
2023-08-22T11:37:49.147Z,1.65
2023-08-22T11:40:18.443Z,2.17
2023-08-22T11:42:48.358Z,1.90
2023-08-22T11:45:22.058Z,1.88
2023-08-22T11:47:54.508Z,2.20
2023-08-22T11:50:26.010Z,2.03
2023-08-22T11:52:59.143Z,2.10
2023-08-22T11:55:28.810Z,1.92
2023-08-22T11:58:03.551Z,1.80
2023-08-22T12:00:33.915Z,1.90
2023-08-22T12:03:07.199Z,1.95
2023-08-22T12:05:40.753Z,2.13
2023-08-22T12:08:12.030Z,1.90
2023-08-22T12:13:15.016Z,1.73
2023-08-22T12:15:43.292Z,2.03
2023-08-22T12:18:12.349Z,1.85
2023-08-22T12:20:44.593Z,2.10
2023-08-22T12:23:14.386Z,2.00
2023-08-22T12:25:43.997Z,2.00
2023-08-22T12:28:12.879Z,1.77
2023-08-22T12:30:41.390Z,2.00
2023-08-22T12:33:10.447Z,1.80
2023-08-22T12:35:40.064Z,2.10
2023-08-22T12:38:09.203Z,1.92
2023-08-22T12:40:37.486Z,1.90
2023-08-22T12:43:05.810Z,1.80
2023-08-22T12:45:33.784Z,1.95
2023-08-22T12:48:05.015Z,1.80
2023-08-22T12:50:34.269Z,2.00
2023-08-22T12:53:10.268Z,1.85
2023-08-22T12:55:42.579Z,1.92
2023-08-22T12:58:11.251Z,2.00
2023-08-22T13:00:39.999Z,1.80
2023-08-22T13:03:10.269Z,1.90
2023-08-22T13:05:38.779Z,1.73
2023-08-22T13:08:07.388Z,1.92
2023-08-22T13:10:36.399Z,1.80
2023-08-22T13:13:05.090Z,1.60
2023-08-22T13:15:32.930Z,1.90
2023-08-22T13:18:01.271Z,1.90
2023-08-22T13:20:31.359Z,2.00
2023-08-22T13:22:59.576Z,1.60
2023-08-22T13:25:27.792Z,1.77
2023-08-22T13:27:55.936Z,1.92
2023-08-22T13:30:24.623Z,1.70
2023-08-22T13:32:52.894Z,1.88
2023-08-22T13:35:21.731Z,1.58
2023-08-22T13:37:50.132Z,1.75
2023-08-22T13:40:18.162Z,1.70
2023-08-22T13:42:46.328Z,2.00
2023-08-22T13:45:14.260Z,1.80
2023-08-22T13:47:43.829Z,1.90
2023-08-22T13:50:12.078Z,1.60
2023-08-22T13:52:40.382Z,1.80
2023-08-22T13:55:08.609Z,1.80
2023-08-22T13:57:36.796Z,10.07
2023-08-22T14:00:06.253Z,16.77
2023-08-22T14:02:34.452Z,2.03
2023-08-22T14:05:02.428Z,2.00
2023-08-22T14:07:30.597Z,1.95
2023-08-22T14:09:58.528Z,1.80
2023-08-22T14:12:26.762Z,1.70
2023-08-22T14:14:54.705Z,3.85
2023-08-22T14:17:23.419Z,1.88
2023-08-22T14:19:51.414Z,1.83
2023-08-22T14:22:19.698Z,8.52
2023-08-22T14:24:47.706Z,6.18
2023-08-22T14:27:16.078Z,1.98
2023-08-22T14:29:44.006Z,2.00
2023-08-22T14:32:12.345Z,1.83
2023-08-22T14:34:40.444Z,1.92
2023-08-22T14:37:22.363Z,1.83
2023-08-22T14:39:51.577Z,1.87
2023-08-22T14:42:19.785Z,1.73
2023-08-22T14:44:47.877Z,1.75
2023-08-22T14:47:15.918Z,1.70
2023-08-22T14:49:44.195Z,1.80
2023-08-22T14:52:14.485Z,1.67
2023-08-22T14:54:42.706Z,1.83
2023-08-22T14:57:12.032Z,1.80
2023-08-22T14:59:40.325Z,1.90
2023-08-22T15:02:08.495Z,1.73
2023-08-22T15:04:36.771Z,1.80
2023-08-22T15:07:04.651Z,2.00
2023-08-22T15:09:32.795Z,1.90
2023-08-22T15:12:00.649Z,1.88
2023-08-22T15:14:28.987Z,2.10
2023-08-22T15:16:59.332Z,1.90
2023-08-22T15:19:27.485Z,2.10
2023-08-22T15:21:55.522Z,2.13
2023-08-22T15:24:23.835Z,2.10
2023-08-22T15:26:52.713Z,2.03
2023-08-22T15:29:20.954Z,2.10
2023-08-22T15:31:48.824Z,2.28
2023-08-22T15:34:17.587Z,2.03
2023-08-22T15:36:45.882Z,2.03
2023-08-22T15:41:43.593Z,2.00
2023-08-22T15:44:12.072Z,1.77
2023-08-22T15:46:40.107Z,2.10
2023-08-22T15:49:08.304Z,2.15
2023-08-22T15:51:36.146Z,2.53
2023-08-22T15:54:04.351Z,2.10
2023-08-22T15:56:32.300Z,2.05
2023-08-22T15:59:00.474Z,2.20
2023-08-22T16:01:28.517Z,1.90
2023-08-22T16:03:59.284Z,2.38
2023-08-22T16:06:27.203Z,2.05
2023-08-22T16:08:57.571Z,1.92
2023-08-22T16:11:25.762Z,1.98
2023-08-22T16:13:53.892Z,2.17
2023-08-22T16:16:21.744Z,2.00
2023-08-22T16:18:50.025Z,2.20
2023-08-22T16:21:17.918Z,2.00
2023-08-22T16:23:46.228Z,2.20
2023-08-22T16:26:16.230Z,2.30
2023-08-22T16:28:45.400Z,2.20
2023-08-22T16:31:15.988Z,2.45
2023-08-22T16:33:44.144Z,2.10
2023-08-22T16:36:12.330Z,2.10
2023-08-22T16:38:40.165Z,2.70
2023-08-22T16:41:08.368Z,3.20
2023-08-22T16:43:36.356Z,2.17
2023-08-22T16:46:06.631Z,2.20
2023-08-22T16:48:34.517Z,2.30
2023-08-22T16:51:02.807Z,2.22
2023-08-22T16:53:31.436Z,3.33
2023-08-22T16:56:02.424Z,2.90
2023-08-22T16:58:30.350Z,3.17
2023-08-22T17:00:58.612Z,4.80
2023-08-22T17:03:26.572Z,5.75
2023-08-22T17:05:54.823Z,6.47
2023-08-22T17:08:22.686Z,3.22
2023-08-22T17:10:50.861Z,2.65
2023-08-22T17:13:18.761Z,2.53
2023-08-22T17:15:46.953Z,2.97
2023-08-22T17:18:15.525Z,3.53
2023-08-22T17:20:43.705Z,3.10
2023-08-22T17:23:15.957Z,3.10
2023-08-22T17:25:44.052Z,2.90
2023-08-22T17:28:12.026Z,2.80
2023-08-22T17:30:40.168Z,2.70
2023-08-22T17:33:08.293Z,3.03
2023-08-22T17:35:38.963Z,3.97
2023-08-22T17:38:08.926Z,2.80
2023-08-22T17:40:37.214Z,3.75
2023-08-22T17:43:05.265Z,2.90
2023-08-22T17:45:33.227Z,2.72
2023-08-22T17:48:03.010Z,2.58
2023-08-22T17:51:07.532Z,2.85
2023-08-22T17:53:35.841Z,2.55
2023-08-22T17:56:03.882Z,2.53
2023-08-22T17:58:34.192Z,2.50
2023-08-22T18:01:02.170Z,2.97
2023-08-22T18:03:30.455Z,2.72
2023-08-22T18:06:00.479Z,2.65
2023-08-22T18:08:29.722Z,2.60
2023-08-22T18:10:58.770Z,2.35
2023-08-22T18:13:27.116Z,2.53
2023-08-22T18:16:09.920Z,2.75
2023-08-22T18:18:41.375Z,2.50
2023-08-22T18:21:11.913Z,2.55
2023-08-22T18:23:41.492Z,2.60
2023-08-22T18:26:10.928Z,2.40
2023-08-22T18:28:40.146Z,2.40
2023-08-22T18:31:24.687Z,2.38
2023-08-22T18:33:55.964Z,2.55
2023-08-22T18:36:30.293Z,2.25
2023-08-22T18:38:58.619Z,2.20
2023-08-22T18:41:26.682Z,2.10
2023-08-22T18:43:54.883Z,2.00
2023-08-22T18:46:25.832Z,2.45
2023-08-22T18:48:57.469Z,1.70
2023-08-22T18:51:25.572Z,2.00
2023-08-22T18:53:54.203Z,1.95
2023-08-22T18:56:23.487Z,2.53
2023-08-22T18:58:51.782Z,2.30
2023-08-22T19:01:19.708Z,2.20
2023-08-22T19:03:48.040Z,3.00
2023-08-22T19:06:15.977Z,2.38
2023-08-22T19:08:44.295Z,2.30
2023-08-22T19:11:12.167Z,2.60
2023-08-22T19:13:40.429Z,2.80
2023-08-22T19:16:08.341Z,2.42
2023-08-22T19:18:36.461Z,2.42
2023-08-22T19:21:04.338Z,2.75
2023-08-22T19:23:32.520Z,2.40
2023-08-22T19:26:05.617Z,2.70
2023-08-22T19:28:34.229Z,2.20
2023-08-22T19:31:02.423Z,2.70
2023-08-22T19:33:31.466Z,2.60
2023-08-22T19:35:59.451Z,2.40
2023-08-22T19:38:27.700Z,2.95
2023-08-22T19:40:56.394Z,2.60
2023-08-22T19:43:27.300Z,2.17
2023-08-22T19:45:59.692Z,2.13
2023-08-22T19:48:28.041Z,2.05
2023-08-22T19:50:56.033Z,2.15
2023-08-22T19:53:24.394Z,2.20
2023-08-22T19:55:52.321Z,2.30
2023-08-22T19:58:20.543Z,3.65
2023-08-22T20:00:49.354Z,2.55
2023-08-22T20:03:17.938Z,2.30
2023-08-22T20:05:48.226Z,2.38
2023-08-22T20:08:16.616Z,2.30
2023-08-22T20:10:44.552Z,5.95
2023-08-22T20:13:19.687Z,3.55
2023-08-22T20:15:50.715Z,4.90
2023-08-22T20:18:19.232Z,4.75
2023-08-22T20:20:48.570Z,3.63
2023-08-22T20:23:18.688Z,3.38
2023-08-22T20:25:49.540Z,3.45
2023-08-22T20:28:17.801Z,6.45
2023-08-22T20:30:45.885Z,3.63
2023-08-22T20:33:14.581Z,2.00
2023-08-22T20:35:49.754Z,2.33
2023-08-22T20:38:17.935Z,2.42
2023-08-22T20:40:46.119Z,2.20
2023-08-22T20:43:14.312Z,2.20
2023-08-22T20:45:44.700Z,5.32
2023-08-22T20:48:13.466Z,3.58
2023-08-22T20:50:41.351Z,1.90
2023-08-22T20:53:09.601Z,2.00
2023-08-22T20:55:38.663Z,2.13
2023-08-22T20:58:09.868Z,2.10
2023-08-22T21:00:37.754Z,2.20
2023-08-22T21:03:06.092Z,2.00
2023-08-22T21:05:35.397Z,2.30
2023-08-22T21:08:05.510Z,2.13
2023-08-22T21:10:33.537Z,1.92
2023-08-22T21:13:01.763Z,2.30
2023-08-22T21:15:29.567Z,2.30
2023-08-22T21:17:57.769Z,1.90
2023-08-22T21:20:25.700Z,2.17
2023-08-22T21:22:53.916Z,2.10
2023-08-22T21:25:21.797Z,2.13
2023-08-22T21:27:50.052Z,2.63
2023-08-22T21:30:18.023Z,2.28
2023-08-22T21:32:46.428Z,2.30
2023-08-22T21:35:14.671Z,2.65
2023-08-22T21:37:45.471Z,2.33
2023-08-22T21:40:13.410Z,2.30
2023-08-22T21:42:42.057Z,2.30
2023-08-22T21:45:14.406Z,2.70
2023-08-22T21:47:43.762Z,2.20
2023-08-22T21:50:12.253Z,2.17
2023-08-22T21:52:40.381Z,2.40
2023-08-22T21:55:08.762Z,2.75
2023-08-22T21:57:36.883Z,2.53
2023-08-22T22:00:06.420Z,2.42
2023-08-22T22:02:36.973Z,2.30
2023-08-22T22:05:05.301Z,2.30
2023-08-22T22:07:35.542Z,2.35
2023-08-22T22:10:04.170Z,2.58
2023-08-22T22:12:32.501Z,2.30
2023-08-22T22:15:00.340Z,3.03
2023-08-22T22:17:28.540Z,2.20
2023-08-22T22:19:56.424Z,2.63
2023-08-22T22:22:24.691Z,2.40
2023-08-22T22:24:52.572Z,2.67
2023-08-22T22:27:23.084Z,2.60
2023-08-22T22:29:51.666Z,2.60
2023-08-22T22:32:20.144Z,2.67
2023-08-22T22:34:48.106Z,2.47
2023-08-22T22:37:16.305Z,2.70
2023-08-22T22:39:44.174Z,2.72
2023-08-22T22:42:12.428Z,2.60
2023-08-22T22:44:40.578Z,3.58
2023-08-22T22:49:30.628Z,2.75
2023-08-22T22:51:59.090Z,2.88
2023-08-22T22:54:28.455Z,2.90
2023-08-22T22:56:56.517Z,2.65
2023-08-22T22:59:24.462Z,2.70
2023-08-22T23:01:53.564Z,2.95
2023-08-22T23:04:21.505Z,3.10
2023-08-22T23:06:49.765Z,2.63
2023-08-22T23:09:17.730Z,2.90
2023-08-22T23:12:04.134Z,2.95
2023-08-22T23:14:38.041Z,3.10
2023-08-22T23:17:06.144Z,3.03
2023-08-22T23:20:58.414Z,2.97
2023-08-22T23:23:26.729Z,3.10
2023-08-22T23:25:54.574Z,2.92
2023-08-22T23:28:22.753Z,2.70
2023-08-22T23:30:52.672Z,3.00
2023-08-22T23:33:20.922Z,3.17
2023-08-22T23:35:48.744Z,2.38
2023-08-22T23:38:16.946Z,2.70
2023-08-22T23:40:44.836Z,2.92
2023-08-22T23:43:12.963Z,3.20
2023-08-22T23:45:40.815Z,2.60
2023-08-22T23:48:09.063Z,2.88
2023-08-22T23:50:36.824Z,3.20
2023-08-22T23:53:05.245Z,3.17
2023-08-22T23:55:33.647Z,3.00
2023-08-22T23:58:01.778Z,3.10
